sensor_id;sensor_type;location;lat;lon;timestamp;temperature;humidity
40323;DHT22;26030;51.164;17.100;2023-04-06T00:00:30;22.60;54.30
40323;DHT22;26030;51.164;17.100;2023-04-06T00:05:49;22.60;54.40
40323;DHT22;26030;51.164;17.100;2023-04-06T00:10:53;22.70;54.30
40323;DHT22;26030;51.164;17.100;2023-04-06T00:15:57;22.70;54.20
40323;DHT22;26030;51.164;17.100;2023-04-06T00:21:02;22.60;54.60
40323;DHT22;26030;51.164;17.100;2023-04-06T00:26:07;22.60;53.80
40323;DHT22;26030;51.164;17.100;2023-04-06T00:31:12;22.60;54.30
40323;DHT22;26030;51.164;17.100;2023-04-06T00:36:16;22.70;53.70
40323;DHT22;26030;51.164;17.100;2023-04-06T00:41:20;22.70;53.20
40323;DHT22;26030;51.164;17.100;2023-04-06T00:46:24;22.70;53.00
40323;DHT22;26030;51.164;17.100;2023-04-06T00:51:28;22.50;53.40
40323;DHT22;26030;51.164;17.100;2023-04-06T00:56:32;22.30;53.60
40323;DHT22;26030;51.164;17.100;2023-04-06T01:01:37;22.30;53.50
40323;DHT22;26030;51.164;17.100;2023-04-06T01:06:50;22.20;53.70
40323;DHT22;26030;51.164;17.100;2023-04-06T01:11:57;22.20;53.60
40323;DHT22;26030;51.164;17.100;2023-04-06T01:17:05;22.10;53.80
40323;DHT22;26030;51.164;17.100;2023-04-06T01:22:13;22.10;53.30
40323;DHT22;26030;51.164;17.100;2023-04-06T01:27:31;22.00;53.80
40323;DHT22;26030;51.164;17.100;2023-04-06T01:32:54;22.00;53.60
40323;DHT22;26030;51.164;17.100;2023-04-06T01:38:18;22.00;53.50
40323;DHT22;26030;51.164;17.100;2023-04-06T01:43:23;21.90;53.50
40323;DHT22;26030;51.164;17.100;2023-04-06T01:48:40;21.80;53.50
40323;DHT22;26030;51.164;17.100;2023-04-06T01:54:16;21.80;53.60
40323;DHT22;26030;51.164;17.100;2023-04-06T01:59:50;21.80;53.40
40323;DHT22;26030;51.164;17.100;2023-04-06T02:05:04;21.70;53.60
40323;DHT22;26030;51.164;17.100;2023-04-06T02:10:12;21.70;54.00
40323;DHT22;26030;51.164;17.100;2023-04-06T02:15:18;21.60;53.40
40323;DHT22;26030;51.164;17.100;2023-04-06T02:20:23;21.50;53.80
40323;DHT22;26030;51.164;17.100;2023-04-06T02:25:28;21.60;54.30
40323;DHT22;26030;51.164;17.100;2023-04-06T02:30:32;21.80;53.90
40323;DHT22;26030;51.164;17.100;2023-04-06T02:35:36;21.90;53.30
40323;DHT22;26030;51.164;17.100;2023-04-06T02:40:40;22.20;52.60
40323;DHT22;26030;51.164;17.100;2023-04-06T02:45:58;22.40;51.80
40323;DHT22;26030;51.164;17.100;2023-04-06T02:51:03;22.40;52.20
40323;DHT22;26030;51.164;17.100;2023-04-06T02:56:07;22.40;51.90
40323;DHT22;26030;51.164;17.100;2023-04-06T03:01:20;22.30;52.20
40323;DHT22;26030;51.164;17.100;2023-04-06T03:06:28;22.30;51.70
40323;DHT22;26030;51.164;17.100;2023-04-06T03:11:35;22.30;51.90
40323;DHT22;26030;51.164;17.100;2023-04-06T03:16:40;22.30;51.80
40323;DHT22;26030;51.164;17.100;2023-04-06T03:21:44;22.30;52.00
40323;DHT22;26030;51.164;17.100;2023-04-06T03:26:48;22.20;51.60
40323;DHT22;26030;51.164;17.100;2023-04-06T03:31:54;22.20;51.50
40323;DHT22;26030;51.164;17.100;2023-04-06T03:37:13;22.20;51.50
40323;DHT22;26030;51.164;17.100;2023-04-06T03:42:21;22.20;51.50
40323;DHT22;26030;51.164;17.100;2023-04-06T03:47:33;22.20;51.60
40323;DHT22;26030;51.164;17.100;2023-04-06T03:52:39;22.10;51.40
40323;DHT22;26030;51.164;17.100;2023-04-06T03:57:43;22.10;51.40
40323;DHT22;26030;51.164;17.100;2023-04-06T04:02:47;22.10;51.50
40323;DHT22;26030;51.164;17.100;2023-04-06T04:07:51;22.10;51.50
40323;DHT22;26030;51.164;17.100;2023-04-06T04:12:59;22.20;52.00
40323;DHT22;26030;51.164;17.100;2023-04-06T04:18:03;22.20;51.50
40323;DHT22;26030;51.164;17.100;2023-04-06T04:23:08;22.30;51.70
40323;DHT22;26030;51.164;17.100;2023-04-06T04:28:13;22.40;51.30
40323;DHT22;26030;51.164;17.100;2023-04-06T04:33:18;22.40;51.00
40323;DHT22;26030;51.164;17.100;2023-04-06T04:38:24;22.40;51.10
40323;DHT22;26030;51.164;17.100;2023-04-06T04:43:30;22.40;51.00
40323;DHT22;26030;51.164;17.100;2023-04-06T04:48:35;22.40;50.90
40323;DHT22;26030;51.164;17.100;2023-04-06T04:53:42;22.30;51.00
40323;DHT22;26030;51.164;17.100;2023-04-06T04:58:54;22.40;50.70
40323;DHT22;26030;51.164;17.100;2023-04-06T05:03:59;22.40;50.70
40323;DHT22;26030;51.164;17.100;2023-04-06T05:09:05;22.40;50.60
40323;DHT22;26030;51.164;17.100;2023-04-06T05:14:09;22.40;50.90
40323;DHT22;26030;51.164;17.100;2023-04-06T05:19:14;22.30;50.90
40323;DHT22;26030;51.164;17.100;2023-04-06T05:24:20;22.30;51.10
40323;DHT22;26030;51.164;17.100;2023-04-06T05:29:25;22.30;50.80
40323;DHT22;26030;51.164;17.100;2023-04-06T05:34:29;22.30;51.30
40323;DHT22;26030;51.164;17.100;2023-04-06T05:39:37;22.40;51.00
40323;DHT22;26030;51.164;17.100;2023-04-06T05:44:42;22.40;51.30
40323;DHT22;26030;51.164;17.100;2023-04-06T05:49:48;22.30;51.60
40323;DHT22;26030;51.164;17.100;2023-04-06T05:55:02;22.40;54.30
40323;DHT22;26030;51.164;17.100;2023-04-06T06:00:07;22.40;55.50
40323;DHT22;26030;51.164;17.100;2023-04-06T06:05:19;22.50;55.00
40323;DHT22;26030;51.164;17.100;2023-04-06T06:10:24;22.60;54.90
40323;DHT22;26030;51.164;17.100;2023-04-06T06:15:28;22.60;54.90
40323;DHT22;26030;51.164;17.100;2023-04-06T06:20:33;22.70;54.00
40323;DHT22;26030;51.164;17.100;2023-04-06T06:25:39;22.70;53.80
40323;DHT22;26030;51.164;17.100;2023-04-06T06:30:44;22.60;53.70
40323;DHT22;26030;51.164;17.100;2023-04-06T06:35:51;22.60;53.50
40323;DHT22;26030;51.164;17.100;2023-04-06T06:40:57;22.70;54.50
40323;DHT22;26030;51.164;17.100;2023-04-06T06:46:06;22.70;54.00
40323;DHT22;26030;51.164;17.100;2023-04-06T06:51:14;22.70;53.60
40323;DHT22;26030;51.164;17.100;2023-04-06T06:56:18;22.70;53.80
40323;DHT22;26030;51.164;17.100;2023-04-06T07:01:23;22.70;53.40
40323;DHT22;26030;51.164;17.100;2023-04-06T07:06:29;22.70;53.80
40323;DHT22;26030;51.164;17.100;2023-04-06T07:11:33;22.60;52.80
40323;DHT22;26030;51.164;17.100;2023-04-06T07:16:37;22.60;52.70
40323;DHT22;26030;51.164;17.100;2023-04-06T07:21:42;22.60;52.70
40323;DHT22;26030;51.164;17.100;2023-04-06T07:26:46;22.40;53.20
40323;DHT22;26030;51.164;17.100;2023-04-06T07:31:50;22.40;53.00
40323;DHT22;26030;51.164;17.100;2023-04-06T07:36:55;22.40;52.50
40323;DHT22;26030;51.164;17.100;2023-04-06T07:42:01;22.40;53.20
40323;DHT22;26030;51.164;17.100;2023-04-06T07:47:06;22.30;53.30
40323;DHT22;26030;51.164;17.100;2023-04-06T07:52:10;22.30;52.40
40323;DHT22;26030;51.164;17.100;2023-04-06T07:57:15;22.10;52.60
40323;DHT22;26030;51.164;17.100;2023-04-06T08:02:20;22.30;52.30
40323;DHT22;26030;51.164;17.100;2023-04-06T08:07:25;22.10;52.70
40323;DHT22;26030;51.164;17.100;2023-04-06T08:12:29;22.10;52.30
40323;DHT22;26030;51.164;17.100;2023-04-06T08:17:34;22.10;52.20
40323;DHT22;26030;51.164;17.100;2023-04-06T08:22:38;22.00;52.30
40323;DHT22;26030;51.164;17.100;2023-04-06T08:27:42;22.00;52.60
40323;DHT22;26030;51.164;17.100;2023-04-06T08:32:46;21.90;52.30
40323;DHT22;26030;51.164;17.100;2023-04-06T08:37:51;21.90;52.40
40323;DHT22;26030;51.164;17.100;2023-04-06T08:42:55;21.90;52.30
40323;DHT22;26030;51.164;17.100;2023-04-06T08:48:00;21.80;52.20
40323;DHT22;26030;51.164;17.100;2023-04-06T08:53:06;21.80;52.20
40323;DHT22;26030;51.164;17.100;2023-04-06T08:58:11;21.90;52.10
40323;DHT22;26030;51.164;17.100;2023-04-06T09:03:27;21.80;51.60
40323;DHT22;26030;51.164;17.100;2023-04-06T09:08:33;21.90;51.90
40323;DHT22;26030;51.164;17.100;2023-04-06T09:13:51;21.90;51.80
40323;DHT22;26030;51.164;17.100;2023-04-06T09:19:03;21.90;51.60
40323;DHT22;26030;51.164;17.100;2023-04-06T09:24:08;21.90;51.60
40323;DHT22;26030;51.164;17.100;2023-04-06T09:29:23;21.90;51.50
40323;DHT22;26030;51.164;17.100;2023-04-06T09:34:30;21.90;51.30
40323;DHT22;26030;51.164;17.100;2023-04-06T09:39:35;21.90;51.50
40323;DHT22;26030;51.164;17.100;2023-04-06T09:44:39;22.00;51.30
40323;DHT22;26030;51.164;17.100;2023-04-06T09:49:43;21.90;51.30
40323;DHT22;26030;51.164;17.100;2023-04-06T09:54:49;22.00;51.40
40323;DHT22;26030;51.164;17.100;2023-04-06T10:05:16;21.90;51.90
40323;DHT22;26030;51.164;17.100;2023-04-06T10:10:27;22.00;52.40
40323;DHT22;26030;51.164;17.100;2023-04-06T10:15:32;22.00;52.50
40323;DHT22;26030;51.164;17.100;2023-04-06T10:25:52;21.90;53.00
40323;DHT22;26030;51.164;17.100;2023-04-06T10:30:58;21.90;51.80
40323;DHT22;26030;51.164;17.100;2023-04-06T10:36:22;21.90;52.50
40323;DHT22;26030;51.164;17.100;2023-04-06T10:41:34;22.00;52.40
40323;DHT22;26030;51.164;17.100;2023-04-06T10:46:52;22.00;52.60
40323;DHT22;26030;51.164;17.100;2023-04-06T10:52:04;22.00;52.50
40323;DHT22;26030;51.164;17.100;2023-04-06T10:57:10;22.00;52.40
40323;DHT22;26030;51.164;17.100;2023-04-06T11:02:20;22.00;52.50
40323;DHT22;26030;51.164;17.100;2023-04-06T11:07:26;22.00;52.50
40323;DHT22;26030;51.164;17.100;2023-04-06T11:12:32;22.10;52.40
40323;DHT22;26030;51.164;17.100;2023-04-06T11:17:38;22.10;52.60
40323;DHT22;26030;51.164;17.100;2023-04-06T11:22:52;22.10;52.90
40323;DHT22;26030;51.164;17.100;2023-04-06T11:27:56;22.20;52.70
40323;DHT22;26030;51.164;17.100;2023-04-06T11:33:01;22.10;52.80
40323;DHT22;26030;51.164;17.100;2023-04-06T11:38:06;22.20;53.10
40323;DHT22;26030;51.164;17.100;2023-04-06T11:43:11;22.20;52.50
40323;DHT22;26030;51.164;17.100;2023-04-06T11:48:18;22.20;52.70
40323;DHT22;26030;51.164;17.100;2023-04-06T11:53:27;22.20;53.10
40323;DHT22;26030;51.164;17.100;2023-04-06T11:58:32;22.20;53.00
40323;DHT22;26030;51.164;17.100;2023-04-06T12:03:37;22.20;53.10
40323;DHT22;26030;51.164;17.100;2023-04-06T12:08:41;22.20;53.10
40323;DHT22;26030;51.164;17.100;2023-04-06T12:13:45;22.20;53.00
40323;DHT22;26030;51.164;17.100;2023-04-06T12:18:50;22.20;53.10
40323;DHT22;26030;51.164;17.100;2023-04-06T12:23:55;22.20;53.00
40323;DHT22;26030;51.164;17.100;2023-04-06T12:29:02;22.20;53.00
40323;DHT22;26030;51.164;17.100;2023-04-06T12:34:12;22.30;53.00
40323;DHT22;26030;51.164;17.100;2023-04-06T12:39:18;22.30;53.10
40323;DHT22;26030;51.164;17.100;2023-04-06T12:44:24;22.20;53.00
40323;DHT22;26030;51.164;17.100;2023-04-06T12:49:30;22.30;53.20
40323;DHT22;26030;51.164;17.100;2023-04-06T12:54:37;22.40;52.70
40323;DHT22;26030;51.164;17.100;2023-04-06T12:59:45;22.40;53.30
40323;DHT22;26030;51.164;17.100;2023-04-06T13:04:51;22.40;52.80
40323;DHT22;26030;51.164;17.100;2023-04-06T13:09:56;22.40;52.60
40323;DHT22;26030;51.164;17.100;2023-04-06T13:15:00;22.50;52.60
40323;DHT22;26030;51.164;17.100;2023-04-06T13:20:05;22.50;52.50
40323;DHT22;26030;51.164;17.100;2023-04-06T13:25:10;22.40;52.90
40323;DHT22;26030;51.164;17.100;2023-04-06T13:30:15;22.40;52.30
40323;DHT22;26030;51.164;17.100;2023-04-06T13:35:20;22.30;52.60
40323;DHT22;26030;51.164;17.100;2023-04-06T13:40:24;22.40;52.40
40323;DHT22;26030;51.164;17.100;2023-04-06T13:45:29;22.40;52.60
40323;DHT22;26030;51.164;17.100;2023-04-06T13:50:34;22.30;52.50
40323;DHT22;26030;51.164;17.100;2023-04-06T13:55:41;22.30;52.60
40323;DHT22;26030;51.164;17.100;2023-04-06T14:00:45;22.30;52.50
40323;DHT22;26030;51.164;17.100;2023-04-06T14:05:51;22.20;52.70
40323;DHT22;26030;51.164;17.100;2023-04-06T14:11:11;22.20;52.50
40323;DHT22;26030;51.164;17.100;2023-04-06T14:16:16;22.20;52.40
40323;DHT22;26030;51.164;17.100;2023-04-06T14:21:23;22.20;52.40
40323;DHT22;26030;51.164;17.100;2023-04-06T14:26:29;22.10;52.70
40323;DHT22;26030;51.164;17.100;2023-04-06T14:31:36;22.10;52.60
40323;DHT22;26030;51.164;17.100;2023-04-06T14:36:42;22.10;52.60
40323;DHT22;26030;51.164;17.100;2023-04-06T14:41:46;22.10;52.60
40323;DHT22;26030;51.164;17.100;2023-04-06T14:46:53;22.00;52.50
40323;DHT22;26030;51.164;17.100;2023-04-06T14:51:59;22.00;52.50
40323;DHT22;26030;51.164;17.100;2023-04-06T14:57:03;22.00;52.60
40323;DHT22;26030;51.164;17.100;2023-04-06T15:02:08;22.10;52.80
40323;DHT22;26030;51.164;17.100;2023-04-06T15:07:12;22.20;52.50
40323;DHT22;26030;51.164;17.100;2023-04-06T15:12:18;22.10;52.90
40323;DHT22;26030;51.164;17.100;2023-04-06T15:17:23;22.20;53.50
40323;DHT22;26030;51.164;17.100;2023-04-06T15:22:31;22.10;52.90
40323;DHT22;26030;51.164;17.100;2023-04-06T15:27:35;22.10;53.60
40323;DHT22;26030;51.164;17.100;2023-04-06T15:32:39;22.10;53.90
40323;DHT22;26030;51.164;17.100;2023-04-06T15:37:47;22.20;54.50
40323;DHT22;26030;51.164;17.100;2023-04-06T15:42:52;22.30;52.90
40323;DHT22;26030;51.164;17.100;2023-04-06T15:47:56;22.10;53.20
40323;DHT22;26030;51.164;17.100;2023-04-06T15:53:02;22.10;53.60
40323;DHT22;26030;51.164;17.100;2023-04-06T15:58:06;22.10;53.40
40323;DHT22;26030;51.164;17.100;2023-04-06T16:03:11;22.10;53.20
40323;DHT22;26030;51.164;17.100;2023-04-06T16:08:17;22.10;53.30
40323;DHT22;26030;51.164;17.100;2023-04-06T16:13:22;22.10;53.30
40323;DHT22;26030;51.164;17.100;2023-04-06T16:18:32;22.20;53.30
40323;DHT22;26030;51.164;17.100;2023-04-06T16:23:47;22.10;53.60
40323;DHT22;26030;51.164;17.100;2023-04-06T16:28:57;22.20;53.00
40323;DHT22;26030;51.164;17.100;2023-04-06T16:34:02;22.20;53.10
40323;DHT22;26030;51.164;17.100;2023-04-06T16:39:06;22.10;53.90
40323;DHT22;26030;51.164;17.100;2023-04-06T16:44:12;22.00;53.90
40323;DHT22;26030;51.164;17.100;2023-04-06T16:49:16;21.90;53.80
40323;DHT22;26030;51.164;17.100;2023-04-06T16:54:23;21.70;54.30
40323;DHT22;26030;51.164;17.100;2023-04-06T16:59:28;21.80;54.40
40323;DHT22;26030;51.164;17.100;2023-04-06T17:04:33;21.80;54.10
40323;DHT22;26030;51.164;17.100;2023-04-06T17:09:40;21.70;54.30
40323;DHT22;26030;51.164;17.100;2023-04-06T17:14:45;21.70;54.20
40323;DHT22;26030;51.164;17.100;2023-04-06T17:19:50;21.70;54.20
40323;DHT22;26030;51.164;17.100;2023-04-06T17:24:54;21.70;54.20
40323;DHT22;26030;51.164;17.100;2023-04-06T17:29:59;21.60;54.30
40323;DHT22;26030;51.164;17.100;2023-04-06T17:35:09;21.50;54.50
40323;DHT22;26030;51.164;17.100;2023-04-06T17:40:14;21.50;54.90
40323;DHT22;26030;51.164;17.100;2023-04-06T17:45:18;21.60;54.30
40323;DHT22;26030;51.164;17.100;2023-04-06T17:50:23;22.10;53.00
40323;DHT22;26030;51.164;17.100;2023-04-06T17:55:27;22.50;51.80
40323;DHT22;26030;51.164;17.100;2023-04-06T18:00:31;22.70;51.30
40323;DHT22;26030;51.164;17.100;2023-04-06T18:05:36;22.90;51.20
40323;DHT22;26030;51.164;17.100;2023-04-06T18:10:41;23.00;50.70
40323;DHT22;26030;51.164;17.100;2023-04-06T18:15:49;23.10;50.60
40323;DHT22;26030;51.164;17.100;2023-04-06T18:20:56;23.10;50.40
40323;DHT22;26030;51.164;17.100;2023-04-06T18:26:10;23.20;51.00
40323;DHT22;26030;51.164;17.100;2023-04-06T18:31:18;23.10;50.90
40323;DHT22;26030;51.164;17.100;2023-04-06T18:36:24;23.10;51.50
40323;DHT22;26030;51.164;17.100;2023-04-06T18:41:29;23.30;50.70
40323;DHT22;26030;51.164;17.100;2023-04-06T18:46:34;23.30;50.60
40323;DHT22;26030;51.164;17.100;2023-04-06T18:51:39;23.30;51.10
40323;DHT22;26030;51.164;17.100;2023-04-06T18:56:45;23.20;50.70
40323;DHT22;26030;51.164;17.100;2023-04-06T19:01:51;23.20;50.60
40323;DHT22;26030;51.164;17.100;2023-04-06T19:07:04;23.10;51.60
40323;DHT22;26030;51.164;17.100;2023-04-06T19:12:10;23.10;51.30
40323;DHT22;26030;51.164;17.100;2023-04-06T19:17:14;23.00;51.60
40323;DHT22;26030;51.164;17.100;2023-04-06T19:22:20;22.80;51.80
40323;DHT22;26030;51.164;17.100;2023-04-06T19:27:27;22.70;52.10
40323;DHT22;26030;51.164;17.100;2023-04-06T19:32:31;22.70;52.10
40323;DHT22;26030;51.164;17.100;2023-04-06T19:37:37;22.60;52.50
40323;DHT22;26030;51.164;17.100;2023-04-06T19:42:41;22.70;53.30
40323;DHT22;26030;51.164;17.100;2023-04-06T19:47:45;22.60;53.10
40323;DHT22;26030;51.164;17.100;2023-04-06T19:52:50;22.50;52.60
40323;DHT22;26030;51.164;17.100;2023-04-06T19:57:55;22.40;52.70
40323;DHT22;26030;51.164;17.100;2023-04-06T20:03:00;22.40;53.30
40323;DHT22;26030;51.164;17.100;2023-04-06T20:08:04;22.30;53.50
40323;DHT22;26030;51.164;17.100;2023-04-06T20:13:09;22.30;53.00
40323;DHT22;26030;51.164;17.100;2023-04-06T20:18:13;22.30;53.40
40323;DHT22;26030;51.164;17.100;2023-04-06T20:23:18;22.20;52.50
40323;DHT22;26030;51.164;17.100;2023-04-06T20:28:22;22.20;52.40
40323;DHT22;26030;51.164;17.100;2023-04-06T20:33:26;22.20;52.40
40323;DHT22;26030;51.164;17.100;2023-04-06T20:38:31;22.20;52.10
40323;DHT22;26030;51.164;17.100;2023-04-06T20:43:38;22.10;52.20
40323;DHT22;26030;51.164;17.100;2023-04-06T20:48:43;22.10;52.00
40323;DHT22;26030;51.164;17.100;2023-04-06T20:53:50;22.00;52.30
40323;DHT22;26030;51.164;17.100;2023-04-06T20:58:56;22.00;52.40
40323;DHT22;26030;51.164;17.100;2023-04-06T21:04:01;22.10;55.80
40323;DHT22;26030;51.164;17.100;2023-04-06T21:09:10;22.10;56.30
40323;DHT22;26030;51.164;17.100;2023-04-06T21:14:16;22.10;55.20
40323;DHT22;26030;51.164;17.100;2023-04-06T21:19:24;22.10;55.10
40323;DHT22;26030;51.164;17.100;2023-04-06T21:24:37;22.00;55.50
40323;DHT22;26030;51.164;17.100;2023-04-06T21:29:47;22.00;55.40
40323;DHT22;26030;51.164;17.100;2023-04-06T21:34:54;22.10;55.10
40323;DHT22;26030;51.164;17.100;2023-04-06T21:39:59;22.00;55.20
40323;DHT22;26030;51.164;17.100;2023-04-06T21:45:05;21.90;55.10
40323;DHT22;26030;51.164;17.100;2023-04-06T21:50:12;21.90;55.10
40323;DHT22;26030;51.164;17.100;2023-04-06T21:55:17;21.90;55.30
40323;DHT22;26030;51.164;17.100;2023-04-06T22:00:23;21.90;55.20
40323;DHT22;26030;51.164;17.100;2023-04-06T22:05:27;21.90;55.10
40323;DHT22;26030;51.164;17.100;2023-04-06T22:10:32;21.80;55.70
40323;DHT22;26030;51.164;17.100;2023-04-06T22:15:37;22.10;55.00
40323;DHT22;26030;51.164;17.100;2023-04-06T22:20:41;22.50;53.80
40323;DHT22;26030;51.164;17.100;2023-04-06T22:25:46;22.80;53.20
40323;DHT22;26030;51.164;17.100;2023-04-06T22:30:51;22.90;52.80
40323;DHT22;26030;51.164;17.100;2023-04-06T22:35:55;23.00;52.70
40323;DHT22;26030;51.164;17.100;2023-04-06T22:40:59;23.10;52.80
40323;DHT22;26030;51.164;17.100;2023-04-06T22:46:03;23.20;52.40
40323;DHT22;26030;51.164;17.100;2023-04-06T22:51:08;23.10;52.50
40323;DHT22;26030;51.164;17.100;2023-04-06T22:56:12;23.00;53.30
40323;DHT22;26030;51.164;17.100;2023-04-06T23:01:16;23.00;53.20
40323;DHT22;26030;51.164;17.100;2023-04-06T23:06:21;23.10;53.10
40323;DHT22;26030;51.164;17.100;2023-04-06T23:11:25;23.10;53.20
40323;DHT22;26030;51.164;17.100;2023-04-06T23:16:29;23.20;52.80
40323;DHT22;26030;51.164;17.100;2023-04-06T23:21:33;23.30;52.60
40323;DHT22;26030;51.164;17.100;2023-04-06T23:26:38;23.30;52.30
40323;DHT22;26030;51.164;17.100;2023-04-06T23:31:50;23.50;52.00
40323;DHT22;26030;51.164;17.100;2023-04-06T23:36:55;23.60;51.80
40323;DHT22;26030;51.164;17.100;2023-04-06T23:42:03;23.40;51.90
40323;DHT22;26030;51.164;17.100;2023-04-06T23:47:08;23.30;52.20
40323;DHT22;26030;51.164;17.100;2023-04-06T23:52:12;23.40;52.00
40323;DHT22;26030;51.164;17.100;2023-04-06T23:57:16;23.40;52.10
